• Join FlightAware (Why Join?)
  • Login
  • US Flag 
03:36PM EDT


 

Airport Tracker/Info


-or-


 

Live Flight TrackerFlight Track Log ✈ SWA1761 ✈ 30-Apr-2013 ✈ KMDW - KMSY

Flight Track Log - Related Links

Times and Time Zones

All times are in EDT time to prevent confusion due to time zone crossing. See the SWA1761 flight status page for this flight to view local times or setup timezone preferences in your user account.

Time Position Orientation Groundspeed Altitude Reporting Facility
EDT Latitude Longitude Course Direction KTS MPH feet Rate Location/Type
04:02PM 41.7506 -87.7925 219° Southwest 179 206 3,100  Level Chicago Center
04:03PM 41.7025 -87.8439 219° Southwest 223 257 5,500 2,280 Climbing Chicago Center
04:04PM 41.6433 -87.8914 211° Southwest 246 283 7,900 2,940 Climbing Chicago Center
04:05PM 41.5642 -87.9367 203° Southwest 258 297 11,600 1,980 Climbing Chicago Center
04:06PM 41.4956 -87.9775 204° Southwest 268 308 12,100 1,080 Climbing Chicago Center
04:07PM 41.4275 -88.0200 205° Southwest 288 331 13,900 2,460 Climbing Chicago Center
04:08PM 41.3206 -88.0592 195° South 332 382 17,300 3,000 Climbing Chicago Center
04:09PM 41.2214 -88.0925 194° South 359 413 20,100 2,580 Climbing Chicago Center
04:10PM 41.1122 -88.1231 192° South 390 449 22,700 1,920 Climbing Chicago Center
04:11PM 41.0025 -88.1547 192° South 404 465 24,100 1,980 Climbing Chicago Center
04:12PM 40.8697 -88.1933 192° South 409 471 26,900 2,220 Climbing Chicago Center
04:13PM 40.7528 -88.2247 191° South 427 491 28,800 1,740 Climbing Chicago Center
04:14PM 40.6328 -88.2589 192° South 441 507 30,500 1,740 Climbing Chicago Center
04:15PM 40.5100 -88.2936 192° South 452 520 32,400 1,620 Climbing Chicago Center
04:17PM 40.3875 -88.3286 192° South 453 521 33,900 900 Climbing Chicago Center
04:18PM 40.2664 -88.3700 195° South 457 526 34,300 1,200 Climbing Chicago Center
04:19PM 40.1306 -88.4283 198° South 449 517 36,500 1,860 Climbing Chicago Center
04:19PM 40.0389 -88.4686 199° South 446 513 37,900 780 Climbing Kansas City Center
04:20PM 39.9225 -88.5197 199° South 442 509 38,000  Climbing Kansas City Center
04:22PM 39.8047 -88.5711 199° South 443 510 38,000  Level Kansas City Center
04:23PM 39.6681 -88.6294 198° South 434 499 38,000  Level Kansas City Center
04:24PM 39.5542 -88.6794 199° South 431 496 38,000  Level Kansas City Center
04:25PM 39.4400 -88.7286 198° South 430 495 38,000  Level Kansas City Center
04:26PM 39.3256 -88.7783 199° South 427 491 38,000  Level Kansas City Center
04:27PM 39.2103 -88.8269 198° South 431 496 38,000 240 Level Kansas City Center
04:28PM 39.0956 -88.8758 198° South 433 498 38,500 720 Climbing Kansas City Center
04:29PM 38.9775 -88.9253 198° South 440 506 39,500 720 Climbing Kansas City Center
04:30PM 38.8314 -88.9867 198° South 445 512 40,000 240 Climbing Kansas City Center
04:31PM 38.7136 -89.0364 198° South 445 512 40,000  Level Kansas City Center
04:32PM 38.5983 -89.0856 198° South 438 504 40,000  Level Kansas City Center
04:33PM 38.4742 -89.1367 198° South 434 499 40,000  Level Kansas City Center
04:34PM 38.3561 -89.1761 195° South 438 504 40,000  Level Kansas City Center
04:35PM 38.2278 -89.2083 191° South 435 501 40,000  Level Kansas City Center
04:36PM 38.1106 -89.2381 191° South 431 496 40,000  Level Kansas City Center
04:37PM 37.9953 -89.2661 191° South 423 487 40,000  Level Kansas City Center
04:38PM 37.8711 -89.2964 191° South 421 484 40,000  Level Kansas City Center
04:39PM 37.7544 -89.3244 191° South 421 484 40,000  Level Kansas City Center
04:40PM 37.6389 -89.3531 191° South 422 486 40,000  Level Kansas City Center
04:41PM 37.5247 -89.3789 190° South 420 483 40,000  Level Kansas City Center
04:42PM 37.4083 -89.4092 192° South 423 487 40,000  Level Kansas City Center
04:43PM 37.3389 -89.4361 197° South 428 493 40,000  Level Memphis Center
04:44PM 37.2225 -89.4633 191° South 428 493 40,000  Level Memphis Center
04:45PM 37.1058 -89.4908 191° South 428 493 40,000  Level Memphis Center
04:46PM 36.9894 -89.5206 192° South 428 493 40,000  Level Memphis Center
04:47PM 36.8731 -89.5478 191° South 428 493 40,000  Level Memphis Center
04:48PM 36.7586 -89.5747 191° South 428 493 40,000  Level Memphis Center
04:49PM 36.6483 -89.6044 192° South 428 493 40,000  Level Memphis Center
04:50PM 36.5358 -89.6339 192° South 423 487 40,000  Level Memphis Center
04:51PM 36.4214 -89.6581 190° South 418 481 40,000  Level Memphis Center
04:52PM 36.3111 -89.6847 191° South 412 474 40,000  Level Memphis Center
04:53PM 36.1986 -89.7114 191° South 412 474 40,000 300 Level Memphis Center
04:54PM 36.0883 -89.7353 190° South 412 474 40,600 480 Climbing Memphis Center
04:55PM 35.9758 -89.7619 191° South 412 474 41,000 180 Climbing Memphis Center
04:56PM 35.8653 -89.7858 190° South 412 474 41,000  Level Memphis Center
04:57PM 35.7550 -89.8094 190° South 412 474 41,000  Level Memphis Center
04:58PM 35.6633 -89.8333 192° South 394 453 41,000  Level Memphis Center
04:59PM 35.5444 -89.8594 190° South 389 448 41,000  Level Memphis Center
05:00PM 35.4342 -89.8856 191° South 400 460 41,000  Level Memphis Center
05:01PM 35.3258 -89.9142 192° South 400 460 41,000  Level Memphis Center
05:02PM 35.2172 -89.9378 190° South 400 460 41,000  Level Memphis Center
05:03PM 35.1089 -89.9661 192° South 406 467 41,000  Level Memphis Center
05:04PM 35.0006 -89.9919 191° South 406 467 41,000  Level Memphis Center
05:05PM 34.8881 -90.0153 190° South 406 467 41,000 -180 Level Memphis Center
05:06PM 34.7753 -90.0361 189° South 416 479 40,700 -660 Descending Memphis Center
05:07PM 34.6669 -90.0542 188° South 409 471 39,700 -1,020 Descending Memphis Center
05:08PM 34.5625 -90.0747 189° South 395 455 38,700 -960 Descending Memphis Center
05:09PM 34.4603 -90.0928 188° South 383 441 37,800 -1,320 Descending Memphis Center
05:10PM 34.3561 -90.1106 188° South 378 435 36,100 -2,100 Descending Memphis Center
05:11PM 34.2456 -90.1336 190° South 389 448 33,700 -2,520 Descending Memphis Center
05:12PM 34.1308 -90.1539 188° South 417 480 31,100 -2,580 Descending Memphis Center
05:13PM 34.0056 -90.1767 189° South 452 520 28,600 -1,560 Descending Memphis Center
05:14PM 33.8825 -90.1994 189° South 452 520 28,000 -300 Descending Memphis Center
05:15PM 33.7761 -90.2222 190° South 452 520 28,000  Level Memphis Center
05:16PM 33.6489 -90.2425 188° South 451 519 28,000  Level Memphis Center
05:17PM 33.5256 -90.2650 189° South 451 519 28,000  Level Memphis Center
05:18PM 33.4006 -90.2875 189° South 451 519 28,000  Level Memphis Center
05:19PM 33.2753 -90.3075 188° South 451 519 28,000  Level Memphis Center
05:20PM 33.1500 -90.3275 188° South 451 519 28,000  Level Memphis Center
05:21PM 33.0164 -90.3472 187° South 451 519 28,000  Level Memphis Center
05:22PM 32.8994 -90.3647 187° South 441 507 28,000  Level Memphis Center
05:23PM 32.7825 -90.3819 187° South 434 499 28,000  Level Memphis Center
05:24PM 32.6656 -90.3992 187° South 427 491 28,000  Level Memphis Center
05:25PM 32.5508 -90.4114 185° South 427 491 28,000  Level Memphis Center
05:26PM 32.4361 -90.4214 184° South 422 486 28,000  Level Memphis Center
05:27PM 32.3253 -90.4358 186° South 422 486 28,000  Level Memphis Center
05:28PM 32.2106 -90.4458 184° South 416 479 28,000  Level Memphis Center
05:30PM 31.9972 -90.4575 183° South 408 470 28,000  Level Houston Center
05:31PM 31.8850 -90.4378 172° South 407 468 28,000 -60 Level Houston Center
05:32PM 31.7722 -90.4172 171° South 408 470 27,900 -720 Descending Houston Center
05:33PM 31.6417 -90.3953 172° South 396 456 26,600 -1,200 Descending Houston Center
05:34PM 31.5372 -90.3753 171° South 384 442 25,500 -1,020 Descending Houston Center
05:35PM 31.4314 -90.3572 172° South 383 441 24,500 -780 Descending Houston Center
05:36PM 31.3272 -90.3394 172° South 380 437 24,000 -660 Descending Houston Center
05:37PM 31.2264 -90.3208 171° South 371 427 23,200 -960 Descending Houston Center
05:38PM 31.1272 -90.3039 172° South 361 415 22,000 -1,200 Descending Houston Center
05:39PM 31.0175 -90.2853 172° South 334 384 20,700 -1,020 Descending Houston Center
05:40PM 30.9319 -90.2706 172° South 315 362 20,000 -1,200 Descending Houston Center
05:41PM 30.8683 -90.2589 171° South 301 346 18,600 -1,680 Descending Houston Center
05:41PM 30.8497 -90.2558 172° South 305 351 18,300 -1,860 Descending Houston Center
05:42PM 30.7969 -90.2472 172° South 303 349 17,100 -1,980 Descending Houston Center
05:42PM 30.7650 -90.2422 172° South 306 352 16,300 -1,980 Descending Houston Center
05:43PM 30.7150 -90.2336 172° South 300 345 15,100 -1,860 Descending Houston Center
05:43PM 30.6839 -90.2269 170° South 299 344 14,400 -1,800 Descending Houston Center
05:44PM 30.6331 -90.2178 171° South 295 339 13,300 -2,160 Descending Houston Center
05:44PM 30.5881 -90.2103 172° South 293 337 12,200 -1,860 Descending Houston Center
05:45PM 30.5617 -90.2014 164° South 285 328 11,600 -1,860 Descending Houston Center
05:45PM 30.5342 -90.1544 124° Southeast 284 327 10,300 -1,920 Descending Houston Center
05:46PM 30.5197 -90.1283 123° Southeast 276 318 9,700 -1,620 Descending Houston Center
05:46PM 30.4756 -90.1033 154° Southeast 279 321 8,600 -1,620 Descending Houston Center
05:47PM 30.4481 -90.1069 186° South 269 310 8,100 -1,680 Descending Houston Center
05:47PM 30.4033 -90.1197 194° South 269 310 6,900 -1,260 Descending Houston Center
05:48PM 30.3342 -90.1411 195° South 262 302 5,900 -1,080 Descending Houston Center
05:49PM 30.3011 -90.1517 195° South 231 266 5,400 -1,380 Descending Houston Center
05:49PM 30.2631 -90.1639 196° South 239 275 4,500 -1,320 Descending Houston Center
05:50PM 30.2472 -90.1683 194° South 211 243 4,200 -900 Descending Houston Center
05:50PM 30.2064 -90.1817 196° South 225 259 3,600 -900 Descending Houston Center
05:51PM 30.1517 -90.1986 195° South 214 246 2,600 -780 Descending Houston Center
05:53PM 30.0858 -90.2206 196° South 199 229 2,000 -780 Descending Houston Center
05:53PM 30.0542 -90.2297 194° South 181 208 1,100 -960 Descending Houston Center
05:55PM 30.0128 -90.2431 196° South 145 167 100 -1,020 Descending Houston Center